createdAt,value
2022-08-31T00:01:52.864Z,17.00
2022-08-31T00:04:20.893Z,17.00
2022-08-31T00:06:51.420Z,17.00
2022-08-31T00:09:22.038Z,17.20
2022-08-31T00:11:49.868Z,17.10
2022-08-31T00:14:19.230Z,17.20
2022-08-31T00:16:48.642Z,17.20
2022-08-31T00:19:16.782Z,17.20
2022-08-31T00:21:44.799Z,17.20
2022-08-31T00:24:14.279Z,17.00
2022-08-31T00:26:42.307Z,17.00
2022-08-31T00:29:10.200Z,17.00
2022-08-31T00:31:38.093Z,17.00
2022-08-31T00:34:07.440Z,17.00
2022-08-31T00:36:35.325Z,17.00
2022-08-31T00:39:03.209Z,17.10
2022-08-31T00:41:31.735Z,17.20
2022-08-31T00:44:00.457Z,17.20
2022-08-31T00:46:30.516Z,17.20
2022-08-31T00:49:02.710Z,17.10
2022-08-31T00:51:33.119Z,17.10
2022-08-31T00:54:00.974Z,16.80
2022-08-31T00:56:31.288Z,17.00
2022-08-31T00:58:59.983Z,17.10
2022-08-31T01:01:27.993Z,17.20
2022-08-31T01:03:55.963Z,17.20
2022-08-31T01:06:23.838Z,17.20
2022-08-31T01:08:53.057Z,17.30
2022-08-31T01:11:20.907Z,17.20
2022-08-31T01:13:48.768Z,17.20
2022-08-31T01:16:19.246Z,17.10
2022-08-31T01:18:47.162Z,17.00
2022-08-31T01:21:23.839Z,17.20
2022-08-31T01:23:53.229Z,17.20
2022-08-31T01:26:23.123Z,17.10
2022-08-31T01:28:51.054Z,17.10
2022-08-31T01:31:21.803Z,17.20
2022-08-31T01:33:49.727Z,17.20
2022-08-31T01:36:17.817Z,17.00
2022-08-31T01:39:02.930Z,17.00
2022-08-31T01:41:31.489Z,17.20
2022-08-31T01:44:00.372Z,17.30
2022-08-31T01:46:28.500Z,16.90
2022-08-31T01:48:56.827Z,17.10
2022-08-31T01:51:25.197Z,16.90
2022-08-31T01:56:49.127Z,17.10
2022-08-31T01:59:18.588Z,17.20
2022-08-31T02:01:47.952Z,16.90
2022-08-31T02:04:16.428Z,17.10
2022-08-31T02:06:46.044Z,16.90
2022-08-31T02:09:14.406Z,16.90
2022-08-31T02:11:42.822Z,17.10
2022-08-31T02:14:12.792Z,17.10
2022-08-31T02:16:41.810Z,17.00
2022-08-31T02:19:18.079Z,16.80
2022-08-31T02:21:46.133Z,16.80
2022-08-31T02:24:14.090Z,16.70
2022-08-31T02:26:42.308Z,17.00
2022-08-31T02:29:11.961Z,17.00
2022-08-31T02:31:40.073Z,16.90
2022-08-31T02:34:08.509Z,17.00
2022-08-31T02:36:36.759Z,16.90
2022-08-31T02:39:05.882Z,16.90
2022-08-31T02:41:37.437Z,16.80
2022-08-31T02:44:06.001Z,16.90
2022-08-31T02:46:35.890Z,16.90
2022-08-31T02:49:07.741Z,16.90
2022-08-31T02:51:36.027Z,16.90
2022-08-31T02:54:04.478Z,17.00
2022-08-31T02:56:32.602Z,17.00
2022-08-31T02:59:00.879Z,17.00
2022-08-31T03:01:29.208Z,16.90
2022-08-31T03:04:00.931Z,16.90
2022-08-31T03:06:29.939Z,17.10
2022-08-31T03:08:59.698Z,16.70
2022-08-31T03:11:27.907Z,16.60
2022-08-31T03:13:58.749Z,16.80
2022-08-31T03:16:27.344Z,16.70
2022-08-31T03:18:55.763Z,16.70
2022-08-31T03:21:25.337Z,16.70
2022-08-31T03:24:03.334Z,16.70
2022-08-31T03:26:46.915Z,16.50
2022-08-31T03:29:15.659Z,16.70
2022-08-31T03:32:21.672Z,16.60
2022-08-31T03:34:49.770Z,16.60
2022-08-31T03:37:46.606Z,16.60
2022-08-31T03:40:14.822Z,16.60
2022-08-31T03:42:46.172Z,16.70
2022-08-31T03:45:14.437Z,16.70
2022-08-31T03:47:44.481Z,16.70
2022-08-31T03:50:12.791Z,16.70
2022-08-31T03:52:40.889Z,16.70
2022-08-31T03:55:11.617Z,16.80
2022-08-31T03:57:40.101Z,16.90
2022-08-31T04:07:44.119Z,16.60
2022-08-31T04:10:13.895Z,16.70
2022-08-31T04:12:42.131Z,16.60
2022-08-31T04:15:10.788Z,16.50
2022-08-31T04:17:39.451Z,16.50
2022-08-31T04:20:08.533Z,16.50
2022-08-31T04:22:36.619Z,16.50
2022-08-31T04:25:04.842Z,16.50
2022-08-31T04:27:34.299Z,16.60
2022-08-31T04:30:04.045Z,16.60
2022-08-31T04:32:32.184Z,16.60
2022-08-31T04:35:01.999Z,16.70
2022-08-31T04:37:30.878Z,16.70
2022-08-31T04:40:01.477Z,16.60
2022-08-31T04:42:30.077Z,16.70
2022-08-31T04:45:00.094Z,16.70
2022-08-31T04:47:28.401Z,16.80
2022-08-31T04:49:56.573Z,16.80
2022-08-31T04:52:28.308Z,16.80
2022-08-31T04:54:56.906Z,16.80
2022-08-31T04:57:25.012Z,16.80
2022-08-31T04:59:53.397Z,16.90
2022-08-31T05:02:23.095Z,16.70
2022-08-31T05:04:51.180Z,16.70
2022-08-31T05:07:20.040Z,16.60
2022-08-31T05:09:48.316Z,16.70
2022-08-31T05:12:16.517Z,16.70
2022-08-31T05:14:44.948Z,16.90
2022-08-31T05:17:14.802Z,16.70
2022-08-31T05:19:44.957Z,16.80
2022-08-31T05:22:13.142Z,16.90
2022-08-31T05:24:41.293Z,17.00
2022-08-31T05:27:09.946Z,16.90
2022-08-31T05:29:38.001Z,17.00
2022-08-31T05:32:06.246Z,16.90
2022-08-31T05:34:34.383Z,16.90
2022-08-31T05:37:03.898Z,16.90
2022-08-31T05:39:33.372Z,16.90
2022-08-31T05:42:01.504Z,16.90
2022-08-31T05:44:29.901Z,16.90
2022-08-31T05:47:03.662Z,17.00
2022-08-31T05:49:32.605Z,17.00
2022-08-31T05:52:01.008Z,17.00
2022-08-31T05:54:30.412Z,17.00
2022-08-31T05:57:01.264Z,17.00
2022-08-31T05:59:31.276Z,17.00
2022-08-31T06:01:59.394Z,17.10
2022-08-31T06:04:27.832Z,17.10
2022-08-31T06:06:56.035Z,17.10
2022-08-31T06:09:24.371Z,17.20
2022-08-31T06:11:54.366Z,17.10
2022-08-31T06:14:23.914Z,17.10
2022-08-31T06:16:52.658Z,16.90
2022-08-31T06:19:20.829Z,17.00
2022-08-31T06:21:51.505Z,17.00
2022-08-31T06:24:19.937Z,17.00
2022-08-31T06:26:58.517Z,16.90
2022-08-31T06:29:31.450Z,17.00
2022-08-31T06:32:00.438Z,17.10
2022-08-31T06:34:30.038Z,17.00
2022-08-31T06:40:39.316Z,17.00
2022-08-31T06:43:07.905Z,17.10
2022-08-31T06:45:37.457Z,17.10
2022-08-31T06:48:05.878Z,17.10
2022-08-31T06:50:34.043Z,17.00
2022-08-31T06:53:03.766Z,17.00
2022-08-31T06:55:31.739Z,17.00
2022-08-31T06:58:00.171Z,17.00
2022-08-31T07:00:28.086Z,17.00
2022-08-31T07:02:57.949Z,17.10
2022-08-31T07:05:41.016Z,16.90
2022-08-31T07:08:08.855Z,17.10
2022-08-31T07:10:36.785Z,17.20
2022-08-31T07:13:04.653Z,17.20
2022-08-31T07:15:32.537Z,17.10
2022-08-31T07:18:01.794Z,17.20
2022-08-31T07:20:29.945Z,17.20
2022-08-31T07:22:58.209Z,17.10
2022-08-31T07:25:27.347Z,17.00
2022-08-31T07:27:55.606Z,17.10
2022-08-31T07:30:23.695Z,17.10
2022-08-31T07:32:52.021Z,17.00
2022-08-31T07:35:25.733Z,17.00
2022-08-31T07:38:11.205Z,17.10
2022-08-31T07:40:56.762Z,17.10
2022-08-31T07:43:25.821Z,17.20
2022-08-31T07:45:53.703Z,17.20
2022-08-31T07:48:22.828Z,17.30
2022-08-31T07:50:53.246Z,17.50
2022-08-31T07:53:24.850Z,17.60
2022-08-31T07:55:55.538Z,17.50
2022-08-31T07:58:24.129Z,17.30
2022-08-31T08:00:52.262Z,17.30
2022-08-31T08:03:20.415Z,17.20
2022-08-31T08:05:48.574Z,17.20
2022-08-31T08:08:25.013Z,17.30
2022-08-31T08:10:53.128Z,17.30
2022-08-31T08:13:22.558Z,17.40
2022-08-31T08:15:51.868Z,17.30
2022-08-31T08:18:20.277Z,17.30
2022-08-31T08:20:48.061Z,17.50
2022-08-31T08:23:28.364Z,17.30
2022-08-31T08:25:57.835Z,17.40
2022-08-31T08:28:43.106Z,17.40
2022-08-31T08:31:13.396Z,17.40
2022-08-31T08:33:41.382Z,17.70
2022-08-31T08:36:09.664Z,17.70
2022-08-31T08:38:41.196Z,17.80
2022-08-31T08:41:19.193Z,17.80
2022-08-31T08:43:52.600Z,18.10
2022-08-31T08:46:34.867Z,17.80
2022-08-31T08:49:09.726Z,17.60
2022-08-31T08:51:39.535Z,17.60
2022-08-31T08:54:11.973Z,17.70
2022-08-31T08:56:42.182Z,17.60
2022-08-31T08:59:15.888Z,17.70
2022-08-31T09:01:47.259Z,17.70
2022-08-31T09:04:21.852Z,17.70
2022-08-31T09:06:54.791Z,17.90
2022-08-31T09:09:37.164Z,17.90
2022-08-31T09:12:14.835Z,17.80
2022-08-31T09:14:50.147Z,17.70
2022-08-31T09:17:36.441Z,17.70
2022-08-31T09:20:05.829Z,17.60
2022-08-31T09:22:36.071Z,17.60
2022-08-31T09:25:06.333Z,17.60
2022-08-31T09:27:46.948Z,17.60
2022-08-31T09:30:17.931Z,17.70
2022-08-31T09:32:57.275Z,17.60
2022-08-31T09:35:30.334Z,17.60
2022-08-31T09:38:02.374Z,17.50
2022-08-31T09:40:40.308Z,17.50
2022-08-31T09:43:10.937Z,17.30
2022-08-31T09:45:50.674Z,17.40
2022-08-31T09:48:39.808Z,17.40
2022-08-31T09:51:07.941Z,17.40
2022-08-31T09:53:58.279Z,17.30
2022-08-31T09:56:27.991Z,17.30
2022-08-31T09:59:01.576Z,17.30
2022-08-31T10:01:34.049Z,17.50
2022-08-31T10:04:19.304Z,17.40
2022-08-31T10:06:52.346Z,17.40
2022-08-31T10:09:26.147Z,17.40
2022-08-31T10:11:57.570Z,17.10
2022-08-31T10:14:29.203Z,17.10
2022-08-31T10:17:02.707Z,17.10
2022-08-31T10:19:38.490Z,17.00
2022-08-31T10:22:07.825Z,17.10
2022-08-31T10:24:39.313Z,17.10
2022-08-31T10:27:16.601Z,17.10
2022-08-31T10:29:49.753Z,17.10
2022-08-31T10:32:24.925Z,17.10
2022-08-31T10:35:06.966Z,17.10
2022-08-31T10:37:41.748Z,17.20
2022-08-31T10:40:12.254Z,16.90
2022-08-31T10:42:44.399Z,17.10
2022-08-31T10:45:18.263Z,17.00
2022-08-31T10:47:49.191Z,16.90
2022-08-31T10:50:20.705Z,17.00
2022-08-31T10:52:53.445Z,17.20
2022-08-31T10:55:29.024Z,17.20
2022-08-31T10:58:02.112Z,17.20
2022-08-31T11:00:47.397Z,17.10
2022-08-31T11:03:22.221Z,17.20
2022-08-31T11:05:53.194Z,17.20
2022-08-31T11:08:50.051Z,17.30
2022-08-31T11:11:22.244Z,17.10
2022-08-31T11:14:00.624Z,17.20
2022-08-31T11:16:43.805Z,17.00
2022-08-31T11:19:27.444Z,17.10
2022-08-31T11:22:16.756Z,17.10
2022-08-31T11:25:08.911Z,17.00
2022-08-31T11:27:37.344Z,17.20
2022-08-31T11:30:08.499Z,17.30
2022-08-31T11:32:39.757Z,17.20
2022-08-31T11:35:10.807Z,17.30
2022-08-31T11:37:54.243Z,17.50
2022-08-31T11:41:00.750Z,17.70
2022-08-31T11:43:52.402Z,17.50
2022-08-31T11:46:44.501Z,17.60
2022-08-31T11:49:36.244Z,17.60
2022-08-31T11:52:10.413Z,17.40
2022-08-31T11:54:59.889Z,17.30
2022-08-31T11:57:36.944Z,17.30
2022-08-31T12:00:07.019Z,17.30
2022-08-31T12:02:45.777Z,17.30
2022-08-31T12:05:14.147Z,17.50
2022-08-31T12:07:43.824Z,17.60
2022-08-31T12:10:27.522Z,17.60
2022-08-31T12:13:20.147Z,17.60
2022-08-31T12:16:18.036Z,17.60
2022-08-31T12:19:00.388Z,17.50
2022-08-31T12:21:50.288Z,17.50
2022-08-31T12:24:25.590Z,17.70
2022-08-31T12:27:00.731Z,18.00
2022-08-31T12:29:29.929Z,18.10
2022-08-31T12:32:30.155Z,18.00
2022-08-31T12:35:05.271Z,18.00
2022-08-31T12:37:34.801Z,18.00
2022-08-31T12:40:17.735Z,18.00
2022-08-31T12:42:57.955Z,18.00
2022-08-31T12:45:40.233Z,18.10
2022-08-31T12:48:13.038Z,18.20
2022-08-31T12:50:44.179Z,18.30
2022-08-31T12:53:36.501Z,18.10
2022-08-31T12:56:06.977Z,18.00
2022-08-31T12:58:51.359Z,18.10
2022-08-31T13:01:22.458Z,17.90
2022-08-31T13:03:53.854Z,18.00
2022-08-31T13:06:28.056Z,18.00
2022-08-31T13:08:56.410Z,18.10
2022-08-31T13:11:35.225Z,18.10
2022-08-31T13:14:11.303Z,18.20
2022-08-31T13:16:41.483Z,18.00
2022-08-31T13:19:09.816Z,18.00
2022-08-31T13:21:40.948Z,17.80
2022-08-31T13:24:10.472Z,18.00
2022-08-31T13:26:39.040Z,17.80
2022-08-31T13:29:10.133Z,18.00
2022-08-31T13:31:47.511Z,17.80
2022-08-31T13:34:15.744Z,17.80
2022-08-31T13:36:51.755Z,17.50
2022-08-31T13:39:23.948Z,17.50
2022-08-31T13:41:57.357Z,17.40
2022-08-31T13:44:33.770Z,17.40
2022-08-31T13:47:06.206Z,17.50
2022-08-31T13:49:35.818Z,17.40
2022-08-31T13:52:06.366Z,17.40
2022-08-31T13:54:36.022Z,17.60
2022-08-31T13:57:19.613Z,17.40
2022-08-31T13:59:48.062Z,17.40
2022-08-31T14:02:36.582Z,17.40
2022-08-31T14:05:08.611Z,17.60
2022-08-31T14:07:58.551Z,17.50
2022-08-31T14:10:27.351Z,17.40
2022-08-31T14:12:56.929Z,17.50
2022-08-31T14:15:37.337Z,17.40
2022-08-31T14:18:25.436Z,17.50
2022-08-31T14:21:21.759Z,17.40
2022-08-31T14:23:53.269Z,17.50
2022-08-31T14:26:22.980Z,17.60
2022-08-31T14:28:53.326Z,17.50
2022-08-31T14:31:24.443Z,17.60
2022-08-31T14:33:57.227Z,17.60
2022-08-31T14:36:26.267Z,17.60
2022-08-31T14:38:58.798Z,17.70
2022-08-31T14:41:31.320Z,17.70
2022-08-31T14:44:09.499Z,17.60
2022-08-31T14:46:38.450Z,17.50
2022-08-31T14:49:07.293Z,17.50
2022-08-31T14:51:39.260Z,17.40
2022-08-31T14:54:09.125Z,17.30
2022-08-31T14:56:40.020Z,17.30
2022-08-31T14:59:16.087Z,17.40
2022-08-31T15:01:44.830Z,17.40
2022-08-31T15:04:13.721Z,17.50
2022-08-31T15:06:41.679Z,17.30
2022-08-31T15:09:10.975Z,17.20
2022-08-31T15:11:39.900Z,17.30
2022-08-31T15:14:12.438Z,17.40
2022-08-31T15:16:42.272Z,17.40
2022-08-31T15:19:12.093Z,17.20
2022-08-31T15:21:52.296Z,17.20
2022-08-31T15:24:23.344Z,17.20
2022-08-31T15:26:52.611Z,17.20
2022-08-31T15:29:20.569Z,17.20
2022-08-31T15:31:49.813Z,17.20
2022-08-31T15:34:21.998Z,17.20
2022-08-31T15:36:55.180Z,17.20
2022-08-31T15:39:24.903Z,17.10
2022-08-31T15:41:52.867Z,17.10
2022-08-31T15:44:20.924Z,16.90
2022-08-31T15:47:06.318Z,16.80
2022-08-31T15:49:34.291Z,16.70
2022-08-31T15:52:03.869Z,16.80
2022-08-31T15:54:35.841Z,16.90
2022-08-31T15:57:06.018Z,16.70
2022-08-31T15:59:34.745Z,16.80
2022-08-31T16:02:03.178Z,16.80
2022-08-31T16:04:31.655Z,16.80
2022-08-31T16:07:00.997Z,16.90
2022-08-31T16:09:29.005Z,16.90
2022-08-31T16:11:59.958Z,17.00
2022-08-31T16:14:29.480Z,17.10
2022-08-31T16:16:59.836Z,17.10
2022-08-31T16:19:35.646Z,17.00
2022-08-31T16:22:04.354Z,17.00
2022-08-31T16:24:37.282Z,16.90
2022-08-31T16:27:08.038Z,16.80
2022-08-31T16:29:36.336Z,16.90
2022-08-31T16:32:06.573Z,16.90
2022-08-31T16:34:34.810Z,17.00
2022-08-31T16:37:07.218Z,17.10
2022-08-31T16:39:36.164Z,17.10
2022-08-31T16:42:04.284Z,17.00
2022-08-31T16:44:37.040Z,16.90
2022-08-31T16:47:05.378Z,16.90
2022-08-31T16:49:36.507Z,16.90
2022-08-31T16:52:06.106Z,17.00
2022-08-31T16:54:34.196Z,17.00
2022-08-31T16:57:02.232Z,16.90
2022-08-31T16:59:30.555Z,16.90
2022-08-31T17:01:59.868Z,16.80
2022-08-31T17:07:16.627Z,16.70
2022-08-31T17:09:44.769Z,16.70
2022-08-31T17:12:13.614Z,16.80
2022-08-31T17:14:46.711Z,16.90
2022-08-31T17:17:17.057Z,16.90
2022-08-31T17:19:45.195Z,16.80
2022-08-31T17:22:21.430Z,16.90
2022-08-31T17:24:56.359Z,16.80
2022-08-31T17:27:24.524Z,16.80
2022-08-31T17:29:53.971Z,16.80
2022-08-31T17:32:24.182Z,16.80
2022-08-31T17:34:54.510Z,17.00
2022-08-31T17:37:24.053Z,16.80
2022-08-31T17:39:53.156Z,16.70
2022-08-31T17:42:21.962Z,16.60
2022-08-31T17:44:50.840Z,16.60
2022-08-31T17:47:19.039Z,16.60
2022-08-31T17:49:49.928Z,16.90
2022-08-31T17:52:20.405Z,16.80
2022-08-31T17:54:50.961Z,16.80
2022-08-31T17:57:22.035Z,16.60
2022-08-31T17:59:49.976Z,16.50
2022-08-31T18:02:19.148Z,16.40
2022-08-31T18:04:49.015Z,16.50
2022-08-31T18:07:17.533Z,16.50
2022-08-31T18:09:46.932Z,16.50
2022-08-31T18:12:15.480Z,16.60
2022-08-31T18:14:43.414Z,16.50
2022-08-31T18:17:13.833Z,16.40
2022-08-31T18:19:41.710Z,16.40
2022-08-31T18:22:10.984Z,16.60
2022-08-31T18:24:39.365Z,16.70
2022-08-31T18:27:08.780Z,16.50
2022-08-31T18:29:37.028Z,16.40
2022-08-31T18:32:05.810Z,16.50
2022-08-31T18:34:35.376Z,16.60
2022-08-31T18:37:03.367Z,16.60
2022-08-31T18:39:53.519Z,16.60
2022-08-31T18:42:38.962Z,16.70
2022-08-31T18:45:16.823Z,16.40
2022-08-31T18:48:01.534Z,16.50
2022-08-31T18:50:32.452Z,16.40
2022-08-31T18:53:03.812Z,16.50
2022-08-31T18:55:38.027Z,16.80
2022-08-31T18:58:08.235Z,16.70
2022-08-31T19:00:36.280Z,16.40
2022-08-31T19:03:04.523Z,16.30
2022-08-31T19:05:32.765Z,16.30
2022-08-31T19:08:00.940Z,16.10
2022-08-31T19:10:28.859Z,16.10
2022-08-31T19:12:58.432Z,16.10
2022-08-31T19:15:35.345Z,16.20
2022-08-31T19:18:05.459Z,16.10
2022-08-31T19:20:33.614Z,16.00
2022-08-31T19:23:01.863Z,16.00
2022-08-31T19:25:34.214Z,16.00
2022-08-31T19:28:07.950Z,16.10
2022-08-31T19:30:35.879Z,16.00
2022-08-31T19:33:07.611Z,16.10
2022-08-31T19:35:36.509Z,16.30
2022-08-31T19:38:04.664Z,16.20
2022-08-31T19:40:36.123Z,16.10
2022-08-31T19:45:54.975Z,16.20
2022-08-31T19:48:24.203Z,16.20
2022-08-31T19:50:52.831Z,16.10
2022-08-31T19:53:22.655Z,16.10
2022-08-31T19:55:52.265Z,16.00
2022-08-31T19:58:26.868Z,16.00
2022-08-31T20:01:02.464Z,15.90
2022-08-31T20:03:31.876Z,15.80
2022-08-31T20:06:00.010Z,16.00
2022-08-31T20:08:29.784Z,15.80
2022-08-31T20:10:57.727Z,15.80
2022-08-31T20:13:28.470Z,15.70
2022-08-31T20:15:57.302Z,15.60
2022-08-31T20:18:28.576Z,15.80
2022-08-31T20:20:56.945Z,15.90
2022-08-31T20:23:26.429Z,15.90
2022-08-31T20:25:54.623Z,15.80
2022-08-31T20:28:26.342Z,15.90
2022-08-31T20:31:00.013Z,16.00
2022-08-31T20:33:29.756Z,16.00
2022-08-31T20:35:58.313Z,16.00
2022-08-31T20:38:28.703Z,15.80
2022-08-31T20:40:57.991Z,15.90
2022-08-31T20:43:27.137Z,15.90
2022-08-31T20:45:56.869Z,15.90
2022-08-31T20:48:42.293Z,15.90
2022-08-31T20:51:16.315Z,15.90
2022-08-31T20:53:44.977Z,15.80
2022-08-31T20:56:17.115Z,15.90
2022-08-31T20:58:45.994Z,15.70
2022-08-31T21:01:16.101Z,15.80
2022-08-31T21:03:44.160Z,15.60
2022-08-31T21:06:13.137Z,15.60
2022-08-31T21:08:42.413Z,15.70
2022-08-31T21:11:12.597Z,15.70
2022-08-31T21:13:40.542Z,15.70
2022-08-31T21:16:08.884Z,15.80
2022-08-31T21:18:39.646Z,15.60
2022-08-31T21:21:13.190Z,15.50
2022-08-31T21:23:41.249Z,15.50
2022-08-31T21:26:09.852Z,15.60
2022-08-31T21:28:39.352Z,15.60
2022-08-31T21:31:15.536Z,15.60
2022-08-31T21:33:47.596Z,15.70
2022-08-31T21:36:16.364Z,15.80
2022-08-31T21:38:44.608Z,15.70
2022-08-31T21:41:12.876Z,15.80
2022-08-31T21:43:40.943Z,15.70
2022-08-31T21:46:10.555Z,15.60
2022-08-31T21:48:39.696Z,15.40
2022-08-31T21:51:13.770Z,15.60
2022-08-31T21:53:42.194Z,15.50
2022-08-31T21:56:10.139Z,15.60
2022-08-31T21:58:38.282Z,15.60
2022-08-31T22:01:07.977Z,15.70
2022-08-31T22:03:36.776Z,15.70
2022-08-31T22:06:07.237Z,15.70
2022-08-31T22:08:36.503Z,15.70
2022-08-31T22:11:08.091Z,15.70
2022-08-31T22:13:37.132Z,15.70
2022-08-31T22:16:16.162Z,15.60
2022-08-31T22:19:03.435Z,15.50
2022-08-31T22:21:33.145Z,15.40
2022-08-31T22:24:03.688Z,15.50
2022-08-31T22:26:34.154Z,15.50
2022-08-31T22:29:02.172Z,15.50
2022-08-31T22:31:30.241Z,15.50
2022-08-31T22:33:58.315Z,15.40
2022-08-31T22:36:32.368Z,15.20
2022-08-31T22:39:03.421Z,15.20
2022-08-31T22:41:32.695Z,15.20
2022-08-31T22:44:00.693Z,15.10
2022-08-31T22:46:28.853Z,15.20
2022-08-31T22:48:57.013Z,15.10
2022-08-31T22:51:24.937Z,15.20
2022-08-31T22:53:52.903Z,15.20
2022-08-31T22:56:25.547Z,15.10
2022-08-31T22:58:53.971Z,15.20
2022-08-31T23:01:23.208Z,15.20
2022-08-31T23:03:51.336Z,15.10
2022-08-31T23:06:20.192Z,15.20
2022-08-31T23:08:48.495Z,15.10
2022-08-31T23:11:17.480Z,15.20
2022-08-31T23:13:53.115Z,15.30
2022-08-31T23:16:24.880Z,15.40
2022-08-31T23:18:53.809Z,15.40
2022-08-31T23:21:21.847Z,15.40
2022-08-31T23:23:49.872Z,15.20
2022-08-31T23:26:19.236Z,15.10
2022-08-31T23:28:48.639Z,14.90
2022-08-31T23:31:16.570Z,15.00
2022-08-31T23:33:53.191Z,15.20
2022-08-31T23:36:25.860Z,15.30
2022-08-31T23:38:55.141Z,15.20
2022-08-31T23:41:25.971Z,15.20
2022-08-31T23:43:56.785Z,15.00
2022-08-31T23:46:25.084Z,15.00
2022-08-31T23:48:53.378Z,15.10
2022-08-31T23:51:21.731Z,15.10
2022-08-31T23:53:55.211Z,14.90
2022-08-31T23:56:32.110Z,14.80
2022-08-31T23:59:01.873Z,14.70
